INFORMACIÓN METAR y TAF
METAR FOR EDDB
ADDS - METARS form results

(0936 UTC 08 August 2022)
Data provider http://aviationweather.gov/metar/data/
 
METAR text: EDDB 080920Z AUTO 01006KT 310V080 CAVOK 25/05 Q1025 NOSIG
Conditions at: EDDB (BERLIN/BRANDERNB, DE) observed 0920 UTC 08 August 2022
Temperature: 25.0°C (77°F)
Dewpoint: 5.0°C (41°F) [RH = 28%]
Pressure (altimeter): 30.27 inches Hg (1025.0 mb)
Winds: from the N (10 degrees) at 7 MPH (6 knots; 3.1 m/s)
Visibility: 6 or more miles (10+ km)
Ceiling: ceiling and visibility are OK
Clouds: unknown
Weather: no significant weather observed at this time

METAR text: EDDB 080850Z AUTO VRB04KT CAVOK 25/07 Q1025 NOSIG
Conditions at: EDDB (BERLIN/BRANDERNB, DE) observed 0850 UTC 08 August 2022
Temperature: 25.0°C (77°F)
Dewpoint: 7.0°C (45°F) [RH = 32%]
Pressure (altimeter): 30.27 inches Hg (1025.0 mb)
Winds: variable direction winds at 5 MPH (4 knots; 2.1 m/s)
Visibility: 6 or more miles (10+ km)
Ceiling: ceiling and visibility are OK
Clouds: unknown
Weather: no significant weather observed at this time

Forecast for: EDDB (BERLIN/BRANDERNB, DE)
Text: TAF EDDB 080500Z 0806/0906 02004KT CAVOK
Forecast period: 0600 UTC 08 August 2022 to 0600 UTC 09 August 2022
Forecast type: FROM: standard forecast or significant change
Winds: from the NNE (20 degrees) at 5 MPH (4 knots; 2.1 m/s)
Visibility: 6 or more miles (10+ km)
Ceiling: unknown
Clouds: missing
Weather: NSW  (no significant weather)

 MAPA DE AEROPUERTO

 INFORMACIÓN DE PISTA
Pista 07L Longitud 8891 ft Ancho 148 ft
Elevación 148 ft Umbral desplazado 0 ft Rumbo de pista 69
Pista 25R Longitud 8891 ft Ancho 148 ft
Elevación 145 ft Umbral desplazado 0 ft Rumbo de pista 249
Pista 07R Longitud 9843 ft Ancho 148 ft
Elevación 146 ft Umbral desplazado 0 ft Rumbo de pista 69
Pista 25L Longitud 9843 ft Ancho 148 ft
Elevación 155 ft Umbral desplazado 0 ft Rumbo de pista 249

 FRECUANCIAS DEL AEROPUERTO
Tipo AFIS Nombre BERLIN INF Frecuencia 132.65 MHZ
Tipo APP Nombre BERLIN ARR Frecuencia 119.625 MHZ
Tipo ATIS Nombre ATIS Frecuencia 124.95 MHZ
Tipo DEP Nombre BERLIN DEP Frecuencia 120.625 MHZ
Tipo DIR Nombre BERLIN DIR Frecuencia 136.1 MHZ
Tipo GND Nombre GND Frecuencia 121.6 MHZ
Tipo INFO Nombre INFO Frecuencia 122.7 MHZ
Tipo TWR Nombre TWR Frecuencia 120.025 MHZ

 RADIO AYUDAS DEL AEROPUERTO
Tipo DME Nombre Schonefeld Frecuencia 114400 KHZ
Tipo NDB Nombre Schonefeld Frecuencia 362 KHZ



Powered by Virtual Airlines Manager [v2.6.2]